Ocracoke, NC

10:15 PM EDT on July 01, 2015 (GMT -0400)
The Ocracoke Harbor Inn/Silver Lake | | Change Station
CLOSE
Current Station
Personal Weather Station
Location: Ocracoke, NC
Elevation: 15 ft
Nearby Weather Stations

Elev 15 ft 35.11 °N, 75.98 °W | Updated 22 seconds ago

Clear
Clear
77.9 °F
Feels Like 76 °F
N
3.0
Wind Variable Wind from SW
Gusts 9.0 mph

Today
High -- | Low -- °F
--% Chance of Precip.
Yesterday
High -- | Low -- °F
Precip. -- in
5:53 AM 8:22 PM
Full, 100% visible
Pressure 29.96 in
Visibility 10.0 miles
Clouds Clear
Heat Index 76 °F
Dew Point Not available.
Humidity Not available.
Rainfall 0.25 in
Snow Depth Not available.
UV 16.0 out of 12
Pollen 1.40 out of 12
Air Quality Not available.
Flu Activity Not available.
METAR KHSE 020151Z AUTO 23014G20KT 10SM CLR 26/23 A2996 RMK AO2 SLP144 T02560233 TSNO

More Conditions Fewer Conditions

Pressure 29.96 in
Visibility 10.0 miles
Clouds Clear
Heat Index 76 °F
Dew Point Not available.
Humidity Not available.
Rainfall 0.25 in
Snow Depth Not available.
UV 16.0 out of 12
Pollen 1.40 out of 12
Air Quality Not available.
Flu Activity Not available.
METAR KHSE 020151Z AUTO 23014G20KT 10SM CLR 26/23 A2996 RMK AO2 SLP144 T02560233 TSNO

More Conditions Fewer Conditions

10-Day Weather Forecast

×

Almanac

Astronomy

Jul. 01, 2015 Rise Set
Actual Time
Civil Twilight
Nautical Twilight
Astronomical Twilight
Moon
Length of Visible Light
Length of Day
Tomorrow will be .
, % of the Moon is Illuminated

Today's Extremes

State Highs State Lows

Community

WunderPhotos

Upload Photos

1,834,376 photos uploaded!

WunderBlogs® & News

Nearby

Air Quality

  Air Quality AQ Index Pollutant
Not available.

Snow Depth

Station Depth Elevation

Earthquake Activity

City Distance Mag. Time & Date
Minimum magnitude displayed is 2.5.

Coastal Water Temperatures

Place Temperature

Stations

Nearby Weather Stations

Station Location Temp. Windchill Dew Point Humidity Wind Precip. Elev Updated Type